Time;durP1;ratioP1;P1;durP2;ratioP2;P2;SDS_P1;SDS_P2;PMS_P1;PMS_P2;Temp;Humidity;BMP_temperature;BMP_pressure;BME280_temperature;BME280_humidity;BME280_pressure;Samples;Min_cycle;Max_cycle;Signal;HPM_P1;HPM_P2
2023/08/31 00:01:23;;;;;;;;;;;25.70;56.10;;;;;;5052218;28;19971;-62
2023/08/31 00:03:50;;;;;;;;;;;25.70;56.10;;;;;;5046171;28;19947;-62
2023/08/31 00:06:17;;;;;;;;;;;25.70;56.00;;;;;;5046625;28;19932;-62
2023/08/31 00:08:45;;;;;;;;;;;25.70;56.10;;;;;;5056506;28;19964;-62
2023/08/31 00:11:12;;;;;;;;;;;25.60;56.00;;;;;;5045635;28;20201;-62
2023/08/31 00:13:39;;;;;;;;;;;25.70;56.00;;;;;;5061531;28;19925;-62
2023/08/31 00:16:05;;;;;;;;;;;25.70;56.00;;;;;;5072406;28;20341;-62
2023/08/31 00:18:32;;;;;;;;;;;25.70;56.00;;;;;;5060765;28;19924;-62
2023/08/31 00:20:59;;;;;;;;;;;25.70;56.00;;;;;;5058697;28;20023;-61
2023/08/31 00:23:26;;;;;;;;;;;25.70;56.00;;;;;;5058527;28;19925;-62
2023/08/31 00:25:53;;;;;;;;;;;25.70;56.00;;;;;;5049128;28;19933;-62
2023/08/31 00:28:22;;;;;;;;;;;25.70;56.00;;;;;;5045913;28;19967;-61
2023/08/31 00:30:49;;;;;;;;;;;25.70;56.00;;;;;;5053811;28;19933;-62
2023/08/31 00:33:16;;;;;;;;;;;25.70;56.00;;;;;;5054454;28;19940;-61
2023/08/31 00:35:46;;;;;;;;;;;25.70;56.00;;;;;;5053822;28;19964;-62
2023/08/31 00:38:16;;;;;;;;;;;25.70;56.00;;;;;;5068094;28;19924;-62
2023/08/31 00:40:47;;;;;;;;;;;25.70;56.10;;;;;;5060171;28;19925;-62
2023/08/31 00:43:17;;;;;;;;;;;25.70;56.10;;;;;;5062501;28;19928;-62
2023/08/31 00:45:45;;;;;;;;;;;25.70;56.10;;;;;;5062578;28;19933;-61
2023/08/31 00:48:14;;;;;;;;;;;25.60;56.00;;;;;;5064124;28;19925;-62
2023/08/31 00:50:41;;;;;;;;;;;25.60;56.00;;;;;;5068515;28;19925;-62
2023/08/31 00:53:08;;;;;;;;;;;25.70;56.10;;;;;;5055046;28;19984;-61
2023/08/31 00:55:36;;;;;;;;;;;25.70;56.10;;;;;;5048234;28;19935;-62
2023/08/31 00:58:05;;;;;;;;;;;25.60;56.10;;;;;;5063636;28;20328;-62
2023/08/31 01:00:35;;;;;;;;;;;25.60;56.10;;;;;;5055606;28;20293;-62
2023/08/31 01:03:08;;;;;;;;;;;25.60;56.10;;;;;;5062007;28;19924;-62
2023/08/31 01:05:53;;;;;;;;;;;25.60;56.10;;;;;;5073853;28;19928;-61
2023/08/31 01:08:39;;;;;;;;;;;25.70;56.20;;;;;;5063916;28;20294;-62
2023/08/31 01:11:13;;;;;;;;;;;25.60;56.10;;;;;;5062791;28;19939;-62
2023/08/31 01:13:41;;;;;;;;;;;25.60;56.10;;;;;;5060360;28;20023;-61
2023/08/31 01:16:08;;;;;;;;;;;25.60;56.10;;;;;;5053577;28;20051;-61
2023/08/31 01:18:37;;;;;;;;;;;25.60;56.10;;;;;;5053989;28;19926;-62
2023/08/31 01:21:20;;;;;;;;;;;25.60;56.10;;;;;;5052032;28;19978;-61
2023/08/31 01:23:54;;;;;;;;;;;25.60;56.10;;;;;;5048237;28;20425;-62
2023/08/31 01:26:22;;;;;;;;;;;25.60;56.20;;;;;;5053964;28;19975;-62
2023/08/31 01:28:49;;;;;;;;;;;25.60;56.10;;;;;;5054589;28;20022;-62
2023/08/31 01:31:17;;;;;;;;;;;25.60;56.10;;;;;;5053412;28;19983;-62
2023/08/31 01:33:44;;;;;;;;;;;25.60;56.10;;;;;;5052799;28;19925;-64
2023/08/31 01:36:22;;;;;;;;;;;25.60;56.10;;;;;;5057548;28;20361;-62
2023/08/31 01:38:51;;;;;;;;;;;25.60;56.10;;;;;;5061578;28;19932;-62
2023/08/31 01:41:20;;;;;;;;;;;25.60;56.10;;;;;;5054181;28;20448;-62
2023/08/31 01:43:48;;;;;;;;;;;25.60;56.20;;;;;;5051762;28;20321;-62
2023/08/31 01:46:15;;;;;;;;;;;25.60;56.20;;;;;;5042891;28;20336;-62
2023/08/31 01:48:42;;;;;;;;;;;25.60;56.10;;;;;;5058621;28;19978;-62
2023/08/31 01:51:09;;;;;;;;;;;25.60;56.20;;;;;;5049417;28;19986;-62
2023/08/31 01:53:36;;;;;;;;;;;25.60;56.20;;;;;;5053879;28;19972;-62
2023/08/31 01:56:04;;;;;;;;;;;25.60;56.20;;;;;;5054508;28;20003;-62
2023/08/31 01:58:31;;;;;;;;;;;25.60;56.20;;;;;;5053375;28;19925;-62
2023/08/31 02:00:58;;;;;;;;;;;25.60;56.10;;;;;;5053625;28;19991;-62
2023/08/31 02:03:25;;;;;;;;;;;25.60;56.20;;;;;;5053792;28;19925;-62
2023/08/31 02:05:52;;;;;;;;;;;25.60;56.20;;;;;;5050646;28;20418;-62
2023/08/31 02:08:19;;;;;;;;;;;25.60;56.10;;;;;;5063125;28;19924;-62
2023/08/31 02:10:48;;;;;;;;;;;25.60;56.20;;;;;;5060189;28;20025;-62
2023/08/31 02:13:16;;;;;;;;;;;25.60;56.10;;;;;;5054969;28;19929;-62
2023/08/31 02:15:43;;;;;;;;;;;25.60;56.10;;;;;;5053737;28;19978;-62
2023/08/31 02:18:10;;;;;;;;;;;25.60;56.10;;;;;;5053471;28;20373;-62
2023/08/31 02:20:37;;;;;;;;;;;25.60;56.10;;;;;;5053069;28;20389;-62
2023/08/31 02:23:04;;;;;;;;;;;25.60;56.10;;;;;;5053841;28;20385;-62
2023/08/31 02:25:32;;;;;;;;;;;25.70;56.10;;;;;;5051138;28;19983;-62
2023/08/31 02:27:59;;;;;;;;;;;25.60;56.10;;;;;;5062119;28;19968;-62
2023/08/31 02:30:26;;;;;;;;;;;25.70;56.10;;;;;;5072698;28;19924;-61
2023/08/31 02:32:53;;;;;;;;;;;25.70;56.10;;;;;;5073623;28;19928;-64
2023/08/31 02:35:20;;;;;;;;;;;25.60;56.00;;;;;;5086265;28;19979;-62
2023/08/31 02:37:47;;;;;;;;;;;25.70;56.10;;;;;;5048205;28;19979;-62
2023/08/31 02:40:15;;;;;;;;;;;25.70;56.10;;;;;;5053084;28;19978;-62
2023/08/31 02:42:42;;;;;;;;;;;25.60;56.00;;;;;;5052022;28;19932;-61
2023/08/31 02:45:09;;;;;;;;;;;25.70;56.10;;;;;;5053254;28;20045;-62
2023/08/31 02:47:36;;;;;;;;;;;25.70;56.10;;;;;;5052186;28;20319;-61
2023/08/31 02:50:03;;;;;;;;;;;25.70;56.10;;;;;;5053051;28;20007;-62
2023/08/31 02:52:30;;;;;;;;;;;25.70;56.00;;;;;;5050727;28;20413;-62
2023/08/31 02:54:57;;;;;;;;;;;25.70;56.00;;;;;;5053262;28;20407;-62
2023/08/31 02:57:24;;;;;;;;;;;25.70;56.00;;;;;;5051906;28;19925;-62
2023/08/31 02:59:51;;;;;;;;;;;25.70;56.00;;;;;;5052601;28;20127;-62
2023/08/31 03:02:18;;;;;;;;;;;25.70;56.00;;;;;;5052582;28;19979;-61
2023/08/31 03:04:45;;;;;;;;;;;25.70;56.00;;;;;;5044770;28;19929;-61
2023/08/31 03:07:13;;;;;;;;;;;25.70;56.10;;;;;;5041112;28;19925;-62
2023/08/31 03:09:40;;;;;;;;;;;25.70;56.10;;;;;;5058128;28;19925;-62
2023/08/31 03:12:07;;;;;;;;;;;25.70;56.10;;;;;;5050747;28;19929;-63
2023/08/31 03:14:34;;;;;;;;;;;25.70;56.10;;;;;;5049202;28;19925;-62
2023/08/31 03:17:02;;;;;;;;;;;25.70;56.10;;;;;;5051786;28;20055;-62
2023/08/31 03:19:29;;;;;;;;;;;25.60;56.10;;;;;;5052116;28;19925;-62
2023/08/31 03:21:55;;;;;;;;;;;25.70;56.10;;;;;;5048112;28;20363;-62
2023/08/31 03:24:23;;;;;;;;;;;25.60;56.10;;;;;;5052699;28;19925;-62
2023/08/31 03:26:50;;;;;;;;;;;25.60;56.10;;;;;;5047694;28;19925;-61
2023/08/31 03:29:18;;;;;;;;;;;25.60;56.10;;;;;;5050045;28;20336;-62
2023/08/31 03:31:45;;;;;;;;;;;25.60;56.10;;;;;;5052080;28;19932;-62
2023/08/31 03:34:12;;;;;;;;;;;25.60;56.10;;;;;;5049896;28;19924;-62
2023/08/31 03:36:39;;;;;;;;;;;25.60;56.10;;;;;;5051620;28;20258;-62
2023/08/31 03:39:06;;;;;;;;;;;25.60;56.10;;;;;;5049282;28;19968;-62
2023/08/31 03:41:35;;;;;;;;;;;25.60;56.10;;;;;;5050436;28;20373;-62
2023/08/31 03:44:02;;;;;;;;;;;25.60;56.20;;;;;;5052589;28;19932;-62
2023/08/31 03:46:29;;;;;;;;;;;25.60;56.10;;;;;;5052299;28;19924;-62
2023/08/31 03:48:56;;;;;;;;;;;25.60;56.20;;;;;;5050562;28;19971;-61
2023/08/31 03:51:23;;;;;;;;;;;25.60;56.10;;;;;;5050186;28;19972;-62
2023/08/31 03:53:50;;;;;;;;;;;25.60;56.20;;;;;;5051237;28;20292;-61
2023/08/31 03:56:17;;;;;;;;;;;25.60;56.20;;;;;;5058872;28;19947;-62
2023/08/31 03:58:44;;;;;;;;;;;25.60;56.20;;;;;;5055609;28;19961;-62
2023/08/31 04:01:12;;;;;;;;;;;25.60;56.20;;;;;;5054675;28;20054;-62
2023/08/31 04:03:40;;;;;;;;;;;25.60;56.20;;;;;;5055775;28;19924;-62
2023/08/31 04:06:07;;;;;;;;;;;25.60;56.20;;;;;;5076492;28;19978;-62
2023/08/31 04:08:34;;;;;;;;;;;25.60;56.20;;;;;;5075848;28;19925;-62
2023/08/31 04:11:01;;;;;;;;;;;25.60;56.20;;;;;;5075921;28;19924;-62
2023/08/31 04:13:28;;;;;;;;;;;25.60;56.20;;;;;;5070774;28;19928;-62
2023/08/31 04:15:55;;;;;;;;;;;25.60;56.20;;;;;;5054292;28;20388;-61
2023/08/31 04:18:22;;;;;;;;;;;25.60;56.20;;;;;;5061127;28;19924;-62
2023/08/31 04:20:53;;;;;;;;;;;25.60;56.20;;;;;;5050992;28;19952;-61
2023/08/31 04:23:20;;;;;;;;;;;25.60;56.20;;;;;;5036347;28;19929;-61
2023/08/31 04:25:47;;;;;;;;;;;25.60;56.20;;;;;;5065720;28;19925;-61
2023/08/31 04:28:14;;;;;;;;;;;25.60;56.20;;;;;;5053690;28;19924;-62
2023/08/31 04:30:41;;;;;;;;;;;25.60;56.20;;;;;;5057933;28;19978;-61
2023/08/31 04:33:08;;;;;;;;;;;25.60;56.10;;;;;;5059027;28;20328;-61
2023/08/31 04:35:36;;;;;;;;;;;25.60;56.10;;;;;;5064373;28;19939;-61
2023/08/31 04:38:03;;;;;;;;;;;25.60;56.20;;;;;;5060014;28;20454;-61
2023/08/31 04:40:30;;;;;;;;;;;25.50;56.20;;;;;;5062503;28;20375;-61
2023/08/31 04:42:57;;;;;;;;;;;25.40;56.20;;;;;;5057698;28;20004;-61
2023/08/31 04:45:24;;;;;;;;;;;25.20;56.30;;;;;;5050384;28;19929;-61
2023/08/31 04:47:51;;;;;;;;;;;25.00;56.20;;;;;;5055015;28;19931;-61
2023/08/31 04:50:18;;;;;;;;;;;24.80;54.60;;;;;;5054671;28;19947;-62
2023/08/31 04:52:46;;;;;;;;;;;24.50;53.20;;;;;;5054505;28;20019;-61
2023/08/31 04:55:13;;;;;;;;;;;24.20;51.50;;;;;;5051587;28;20324;-61
2023/08/31 04:57:40;;;;;;;;;;;23.90;50.70;;;;;;5050904;28;21723;-61
2023/08/31 05:00:09;;;;;;;;;;;23.60;50.00;;;;;;5053801;28;19925;-61
2023/08/31 05:02:36;;;;;;;;;;;23.30;49.80;;;;;;5050903;28;19931;-61
2023/08/31 05:05:04;;;;;;;;;;;23.00;50.50;;;;;;5053520;28;19925;-61
2023/08/31 05:07:31;;;;;;;;;;;22.70;48.70;;;;;;5052015;28;20124;-61
2023/08/31 05:09:59;;;;;;;;;;;22.40;50.70;;;;;;5061025;28;20011;-61
2023/08/31 05:12:26;;;;;;;;;;;22.10;49.20;;;;;;5065001;28;20262;-61
2023/08/31 05:14:53;;;;;;;;;;;21.80;49.00;;;;;;5051644;28;20393;-63
2023/08/31 05:17:21;;;;;;;;;;;21.50;50.60;;;;;;5056023;28;19932;-63
2023/08/31 05:19:50;;;;;;;;;;;21.30;49.90;;;;;;5059521;28;19978;-62
2023/08/31 05:22:17;;;;;;;;;;;21.10;51.50;;;;;;5054791;28;20289;-62
2023/08/31 05:24:44;;;;;;;;;;;20.90;52.50;;;;;;5057527;28;19924;-62
2023/08/31 05:27:11;;;;;;;;;;;20.80;52.80;;;;;;5052829;28;19932;-62
2023/08/31 05:29:38;;;;;;;;;;;20.70;52.50;;;;;;5050010;28;20385;-61
2023/08/31 05:32:06;;;;;;;;;;;20.60;52.20;;;;;;5047323;28;19967;-63
2023/08/31 05:34:37;;;;;;;;;;;20.40;51.60;;;;;;5076623;28;19929;-62
2023/08/31 05:37:04;;;;;;;;;;;20.30;52.00;;;;;;5044484;28;20339;-63
2023/08/31 05:39:31;;;;;;;;;;;20.20;52.40;;;;;;5046557;28;19978;-63
2023/08/31 05:41:59;;;;;;;;;;;20.10;52.80;;;;;;5076264;28;19951;-63
2023/08/31 05:44:28;;;;;;;;;;;20.00;52.60;;;;;;5043043;28;19935;-64
2023/08/31 05:46:55;;;;;;;;;;;20.00;53.30;;;;;;5046396;28;20027;-63
2023/08/31 05:49:22;;;;;;;;;;;19.80;54.20;;;;;;5040714;28;19975;-63
2023/08/31 05:51:49;;;;;;;;;;;19.80;53.10;;;;;;5045112;28;19964;-63
2023/08/31 05:54:16;;;;;;;;;;;19.80;53.80;;;;;;5049600;28;20426;-63
2023/08/31 05:56:43;;;;;;;;;;;19.70;53.70;;;;;;5078058;28;20453;-63
2023/08/31 05:59:10;;;;;;;;;;;19.60;53.70;;;;;;5045391;28;19948;-63
2023/08/31 06:01:37;;;;;;;;;;;19.50;54.90;;;;;;5048194;28;19972;-62
2023/08/31 06:04:05;;;;;;;;;;;19.60;53.80;;;;;;5046293;28;20384;-61
2023/08/31 06:06:33;;;;;;;;;;;19.50;53.40;;;;;;5045300;28;19929;-61
2023/08/31 06:09:00;;;;;;;;;;;19.50;53.60;;;;;;5047215;28;19925;-61
2023/08/31 06:11:27;;;;;;;;;;;19.50;54.10;;;;;;5045159;28;19933;-59
2023/08/31 06:13:54;;;;;;;;;;;19.50;53.70;;;;;;5045145;28;19935;-61
2023/08/31 06:16:22;;;;;;;;;;;19.40;52.30;;;;;;5043713;28;19932;-60
2023/08/31 06:18:49;;;;;;;;;;;19.40;53.70;;;;;;5047246;28;20280;-60
2023/08/31 06:21:17;;;;;;;;;;;19.40;54.10;;;;;;5046312;28;19935;-61
2023/08/31 06:23:44;;;;;;;;;;;19.40;52.60;;;;;;5047829;28;19972;-61
2023/08/31 06:26:11;;;;;;;;;;;19.30;53.20;;;;;;5048482;28;20023;-61
2023/08/31 06:28:38;;;;;;;;;;;19.20;54.30;;;;;;5043235;28;20023;-60
2023/08/31 06:31:05;;;;;;;;;;;19.20;53.30;;;;;;5041449;28;20026;-60
2023/08/31 06:33:32;;;;;;;;;;;19.10;53.50;;;;;;5045034;28;19971;-63
2023/08/31 06:35:59;;;;;;;;;;;19.10;56.70;;;;;;5045689;28;20012;-61
2023/08/31 06:38:26;;;;;;;;;;;19.10;56.40;;;;;;5048093;28;20546;-61
2023/08/31 06:40:58;;;;;;;;;;;19.00;54.10;;;;;;5042750;28;20011;-61
2023/08/31 06:43:26;;;;;;;;;;;19.00;56.30;;;;;;5050420;28;20024;-61
2023/08/31 06:45:53;;;;;;;;;;;19.00;57.70;;;;;;5047086;28;19924;-62
2023/08/31 06:48:20;;;;;;;;;;;18.90;57.50;;;;;;5046779;28;19925;-62
2023/08/31 06:50:47;;;;;;;;;;;18.90;55.60;;;;;;5047227;28;21873;-62
2023/08/31 06:53:14;;;;;;;;;;;18.80;56.40;;;;;;5036964;28;19933;-63
2023/08/31 06:55:42;;;;;;;;;;;18.80;55.70;;;;;;5052170;28;19954;-62
2023/08/31 06:58:09;;;;;;;;;;;18.90;55.30;;;;;;5042788;28;19936;-61
2023/08/31 07:00:35;;;;;;;;;;;18.80;54.80;;;;;;5045900;28;20585;-63
2023/08/31 07:03:05;;;;;;;;;;;18.80;56.10;;;;;;5042794;28;19933;-62
2023/08/31 07:05:40;;;;;;;;;;;18.80;56.30;;;;;;5046034;28;19940;-63
2023/08/31 07:08:08;;;;;;;;;;;18.80;54.70;;;;;;5042988;28;19925;-63
2023/08/31 07:10:36;;;;;;;;;;;18.80;55.80;;;;;;5042335;28;20118;-61
2023/08/31 07:13:04;;;;;;;;;;;18.90;55.30;;;;;;5044400;28;19941;-62
2023/08/31 07:15:31;;;;;;;;;;;18.90;54.40;;;;;;5074135;28;19933;-62
2023/08/31 07:17:59;;;;;;;;;;;18.80;55.00;;;;;;5043778;28;19932;-62
2023/08/31 07:20:26;;;;;;;;;;;18.90;58.10;;;;;;5045792;28;19924;-62
2023/08/31 07:22:53;;;;;;;;;;;18.90;56.00;;;;;;5043304;28;19932;-61
2023/08/31 07:25:20;;;;;;;;;;;18.80;55.40;;;;;;5043735;28;19947;-62
2023/08/31 07:27:47;;;;;;;;;;;18.80;56.60;;;;;;5043840;28;20392;-62
2023/08/31 07:30:15;;;;;;;;;;;18.80;58.20;;;;;;5045396;28;20020;-62
2023/08/31 07:32:42;;;;;;;;;;;18.80;56.60;;;;;;5046697;28;19964;-63
2023/08/31 07:35:09;;;;;;;;;;;18.80;55.30;;;;;;5046590;28;20403;-60
2023/08/31 07:37:37;;;;;;;;;;;18.80;54.20;;;;;;5048966;28;19968;-62
2023/08/31 07:40:08;;;;;;;;;;;18.80;55.50;;;;;;5052829;28;20335;-61
2023/08/31 07:42:35;;;;;;;;;;;18.80;56.70;;;;;;5083985;28;20372;-62
2023/08/31 07:45:05;;;;;;;;;;;18.80;58.80;;;;;;5048148;28;19925;-63
2023/08/31 07:47:32;;;;;;;;;;;18.80;56.70;;;;;;5051768;28;19928;-63
2023/08/31 07:50:01;;;;;;;;;;;18.70;57.10;;;;;;5047244;28;19936;-66
2023/08/31 07:52:28;;;;;;;;;;;18.80;58.00;;;;;;5046780;28;20443;-62
2023/08/31 07:54:56;;;;;;;;;;;18.80;54.20;;;;;;5045454;28;19933;-62
2023/08/31 07:57:23;;;;;;;;;;;18.80;57.80;;;;;;5046458;28;19929;-62
2023/08/31 07:59:50;;;;;;;;;;;18.80;60.40;;;;;;5048085;28;20343;-62
2023/08/31 08:02:17;;;;;;;;;;;18.80;58.70;;;;;;5049138;28;19936;-64
2023/08/31 08:04:45;;;;;;;;;;;18.90;54.40;;;;;;5049148;28;19940;-62
2023/08/31 08:07:13;;;;;;;;;;;18.90;56.40;;;;;;5047960;28;19924;-61
2023/08/31 08:09:40;;;;;;;;;;;18.90;56.00;;;;;;5069532;28;21254;-61
2023/08/31 08:12:07;;;;;;;;;;;19.00;58.70;;;;;;5045973;28;19997;-60
2023/08/31 08:14:34;;;;;;;;;;;18.90;59.20;;;;;;5044944;28;20300;-61
2023/08/31 08:17:03;;;;;;;;;;;18.90;59.30;;;;;;5067145;28;19989;-62
2023/08/31 08:19:30;;;;;;;;;;;18.90;59.40;;;;;;5045156;28;19933;-61
2023/08/31 08:21:57;;;;;;;;;;;18.90;60.40;;;;;;5046653;28;20002;-62
2023/08/31 08:24:24;;;;;;;;;;;18.90;59.90;;;;;;5049620;28;19932;-62
2023/08/31 08:26:51;;;;;;;;;;;18.90;58.50;;;;;;5048163;28;20023;-63
2023/08/31 08:29:18;;;;;;;;;;;18.90;59.30;;;;;;5044406;28;20393;-61
2023/08/31 08:31:45;;;;;;;;;;;18.90;60.00;;;;;;5045641;28;20019;-62
2023/08/31 08:34:12;;;;;;;;;;;18.90;59.20;;;;;;5052477;28;19932;-62
2023/08/31 08:36:39;;;;;;;;;;;19.00;54.70;;;;;;5043783;28;20473;-62
2023/08/31 08:39:06;;;;;;;;;;;19.00;55.10;;;;;;5046307;28;19983;-62
2023/08/31 08:41:35;;;;;;;;;;;19.10;60.00;;;;;;5047724;28;19935;-63
2023/08/31 08:44:03;;;;;;;;;;;19.10;59.30;;;;;;5047191;28;19935;-59
2023/08/31 08:46:31;;;;;;;;;;;19.10;55.00;;;;;;5047601;28;19929;-64
2023/08/31 08:49:00;;;;;;;;;;;19.10;54.60;;;;;;5051462;28;19929;-59
2023/08/31 08:51:27;;;;;;;;;;;19.10;54.50;;;;;;5047102;28;19925;-61
2023/08/31 08:53:55;;;;;;;;;;;19.20;57.90;;;;;;5046079;28;19931;-63
2023/08/31 08:56:22;;;;;;;;;;;19.20;59.80;;;;;;5048818;28;19924;-60
2023/08/31 08:58:49;;;;;;;;;;;19.20;59.10;;;;;;5047516;28;20398;-61
2023/08/31 09:01:17;;;;;;;;;;;19.20;54.20;;;;;;5046703;28;20027;-62
2023/08/31 09:03:44;;;;;;;;;;;19.20;53.60;;;;;;5049547;28;20321;-61
2023/08/31 09:06:11;;;;;;;;;;;19.30;54.20;;;;;;5049224;28;20015;-61
2023/08/31 09:08:41;;;;;;;;;;;19.30;54.90;;;;;;5047273;28;19933;-59
2023/08/31 09:11:08;;;;;;;;;;;19.30;53.70;;;;;;5061716;28;20015;-59
2023/08/31 09:13:35;;;;;;;;;;;19.30;53.80;;;;;;5049643;28;19928;-60
2023/08/31 09:16:02;;;;;;;;;;;19.40;54.40;;;;;;5046291;28;20015;-64
2023/08/31 09:18:31;;;;;;;;;;;19.30;53.40;;;;;;5045500;28;20393;-62
2023/08/31 09:21:00;;;;;;;;;;;19.40;53.20;;;;;;5047452;28;19925;-62
2023/08/31 09:23:27;;;;;;;;;;;19.40;53.80;;;;;;5051841;28;19968;-62
2023/08/31 09:25:55;;;;;;;;;;;19.40;54.90;;;;;;5041623;28;20032;-63
2023/08/31 09:28:23;;;;;;;;;;;19.40;53.80;;;;;;5049238;28;19932;-64
2023/08/31 09:30:51;;;;;;;;;;;19.50;53.80;;;;;;5046494;28;19933;-63
2023/08/31 09:33:20;;;;;;;;;;;19.50;53.60;;;;;;5046422;28;19924;-64
2023/08/31 09:35:49;;;;;;;;;;;19.50;54.00;;;;;;5047116;28;20013;-63
2023/08/31 09:38:16;;;;;;;;;;;19.50;54.30;;;;;;5050110;28;19929;-62
2023/08/31 09:40:43;;;;;;;;;;;19.50;54.10;;;;;;5045954;28;20047;-59
2023/08/31 09:43:18;;;;;;;;;;;19.50;53.90;;;;;;5044700;28;19935;-60
2023/08/31 09:45:45;;;;;;;;;;;19.50;54.50;;;;;;5040483;28;19936;-61
2023/08/31 09:48:13;;;;;;;;;;;19.50;56.80;;;;;;5047388;28;19961;-63
2023/08/31 09:50:42;;;;;;;;;;;19.40;58.20;;;;;;5043039;28;19976;-61
2023/08/31 09:53:10;;;;;;;;;;;19.40;59.00;;;;;;5043195;28;20453;-62
2023/08/31 09:55:41;;;;;;;;;;;19.40;55.40;;;;;;5045913;28;20412;-62
2023/08/31 09:58:09;;;;;;;;;;;19.40;55.10;;;;;;5045581;28;20397;-63
2023/08/31 10:00:43;;;;;;;;;;;19.40;55.80;;;;;;5046699;28;20309;-63
2023/08/31 10:03:14;;;;;;;;;;;19.40;54.90;;;;;;5041987;28;20016;-63
2023/08/31 10:05:45;;;;;;;;;;;19.40;55.50;;;;;;5045891;28;19983;-63
2023/08/31 10:08:12;;;;;;;;;;;19.40;58.20;;;;;;5046763;28;19932;-66
2023/08/31 10:10:40;;;;;;;;;;;19.40;59.20;;;;;;5046068;28;19948;-63
2023/08/31 10:13:07;;;;;;;;;;;19.30;58.80;;;;;;5050180;28;19924;-65
2023/08/31 10:15:35;;;;;;;;;;;19.30;56.20;;;;;;5046330;28;20385;-64
2023/08/31 10:18:05;;;;;;;;;;;19.40;56.80;;;;;;5046465;28;19974;-65
2023/08/31 10:20:33;;;;;;;;;;;19.40;56.70;;;;;;5048192;28;19924;-64
2023/08/31 10:23:04;;;;;;;;;;;19.50;54.90;;;;;;5075586;28;19933;-64
2023/08/31 10:25:54;;;;;;;;;;;19.50;56.30;;;;;;5046051;28;19932;-64
2023/08/31 10:28:25;;;;;;;;;;;19.50;55.70;;;;;;5048131;28;20028;-64
2023/08/31 10:31:06;;;;;;;;;;;19.50;57.60;;;;;;5044967;28;19971;-63
2023/08/31 10:33:47;;;;;;;;;;;19.50;57.00;;;;;;5045255;28;19925;-65
2023/08/31 10:36:15;;;;;;;;;;;19.50;54.60;;;;;;5048307;28;19960;-66
2023/08/31 10:38:46;;;;;;;;;;;19.50;55.70;;;;;;5045139;28;20399;-63
2023/08/31 10:41:21;;;;;;;;;;;19.50;56.10;;;;;;5047576;28;19925;-65
2023/08/31 10:43:57;;;;;;;;;;;19.50;55.80;;;;;;5044888;28;19932;-65
2023/08/31 10:46:32;;;;;;;;;;;19.50;55.70;;;;;;5049621;28;19928;-63
2023/08/31 10:49:14;;;;;;;;;;;19.50;57.70;;;;;;5049556;28;19937;-64
2023/08/31 10:51:43;;;;;;;;;;;19.50;57.10;;;;;;5044973;28;19970;-64
2023/08/31 10:54:20;;;;;;;;;;;19.40;56.70;;;;;;5041937;28;19947;-63
2023/08/31 10:57:04;;;;;;;;;;;19.40;57.40;;;;;;5041820;28;20039;-64
2023/08/31 10:59:52;;;;;;;;;;;19.40;58.00;;;;;;5044581;28;19971;-64
2023/08/31 11:02:36;;;;;;;;;;;19.30;57.50;;;;;;5041419;28;20019;-64
2023/08/31 11:05:10;;;;;;;;;;;19.30;56.30;;;;;;5045140;28;19929;-62
2023/08/31 11:07:42;;;;;;;;;;;19.40;55.80;;;;;;5045010;28;19933;-66
2023/08/31 11:10:10;;;;;;;;;;;19.40;55.10;;;;;;5039565;28;19986;-66
2023/08/31 11:12:40;;;;;;;;;;;19.40;54.50;;;;;;5043652;28;20227;-65
2023/08/31 11:15:07;;;;;;;;;;;19.50;55.60;;;;;;5041267;28;19928;-64
2023/08/31 11:17:35;;;;;;;;;;;19.50;55.80;;;;;;5044266;28;20327;-65
2023/08/31 11:20:05;;;;;;;;;;;19.50;55.10;;;;;;5044119;28;19933;-63
2023/08/31 11:22:33;;;;;;;;;;;19.50;54.10;;;;;;5046904;28;19939;-63
2023/08/31 11:25:00;;;;;;;;;;;19.50;57.30;;;;;;5045287;28;19986;-63
2023/08/31 11:27:27;;;;;;;;;;;19.60;57.50;;;;;;5077694;28;19967;-64
2023/08/31 11:29:54;;;;;;;;;;;19.60;57.50;;;;;;5043749;28;20357;-63
2023/08/31 11:32:24;;;;;;;;;;;19.50;58.20;;;;;;5044526;28;20023;-62
2023/08/31 11:34:51;;;;;;;;;;;19.50;57.90;;;;;;5047276;28;20366;-62
2023/08/31 11:37:20;;;;;;;;;;;19.50;58.40;;;;;;5043895;28;19972;-62
2023/08/31 11:39:50;;;;;;;;;;;19.50;57.90;;;;;;5042274;28;20381;-62
2023/08/31 11:42:18;;;;;;;;;;;19.50;58.70;;;;;;5042820;28;19944;-62
2023/08/31 11:44:49;;;;;;;;;;;19.60;58.80;;;;;;5044666;28;19925;-61
2023/08/31 11:47:17;;;;;;;;;;;19.60;58.60;;;;;;5041596;28;19933;-61
2023/08/31 11:49:45;;;;;;;;;;;19.60;58.30;;;;;;5042015;28;20010;-61
2023/08/31 11:52:12;;;;;;;;;;;19.60;58.30;;;;;;5043001;28;20015;-61
2023/08/31 11:54:40;;;;;;;;;;;19.70;58.60;;;;;;5047926;28;20595;-62
2023/08/31 11:57:08;;;;;;;;;;;19.80;58.10;;;;;;5047235;28;20392;-62
2023/08/31 11:59:36;;;;;;;;;;;19.80;58.40;;;;;;5041780;28;19932;-61
2023/08/31 12:02:07;;;;;;;;;;;19.90;58.70;;;;;;5041494;28;19929;-62
2023/08/31 12:04:44;;;;;;;;;;;20.00;58.40;;;;;;5042390;28;19932;-63
2023/08/31 12:07:16;;;;;;;;;;;20.10;58.10;;;;;;5039857;28;20660;-62
2023/08/31 12:09:44;;;;;;;;;;;20.10;58.00;;;;;;5046091;28;19925;-62
2023/08/31 12:12:13;;;;;;;;;;;20.20;57.90;;;;;;5047985;28;19939;-62
2023/08/31 12:14:40;;;;;;;;;;;20.30;57.70;;;;;;5048157;28;19933;-62
2023/08/31 12:17:08;;;;;;;;;;;20.40;57.60;;;;;;5052802;28;19928;-62
2023/08/31 12:19:39;;;;;;;;;;;20.50;57.60;;;;;;5058486;28;19924;-62
2023/08/31 12:22:12;;;;;;;;;;;20.50;57.50;;;;;;5048504;28;20506;-62
2023/08/31 12:24:40;;;;;;;;;;;20.40;57.50;;;;;;5050066;28;19929;-63
2023/08/31 12:27:08;;;;;;;;;;;20.50;58.00;;;;;;5049934;28;19929;-62
2023/08/31 12:29:35;;;;;;;;;;;20.50;58.00;;;;;;5045310;28;19979;-61
2023/08/31 12:32:03;;;;;;;;;;;20.60;57.90;;;;;;5051097;28;19950;-61
2023/08/31 12:34:33;;;;;;;;;;;20.70;57.80;;;;;;5049839;28;20015;-65
2023/08/31 12:37:01;;;;;;;;;;;20.70;57.80;;;;;;5044518;28;19959;-62
2023/08/31 12:39:28;;;;;;;;;;;20.70;57.70;;;;;;5053148;28;19924;-62
2023/08/31 12:41:55;;;;;;;;;;;20.80;57.70;;;;;;5046849;28;19932;-60
2023/08/31 12:44:34;;;;;;;;;;;20.80;57.70;;;;;;5046010;28;19925;-61
2023/08/31 12:47:04;;;;;;;;;;;20.80;58.00;;;;;;5047677;28;20375;-60
2023/08/31 12:49:31;;;;;;;;;;;20.80;57.80;;;;;;5043237;28;20385;-61
2023/08/31 12:51:58;;;;;;;;;;;20.80;57.90;;;;;;5043242;28;19951;-62
2023/08/31 12:54:25;;;;;;;;;;;20.90;58.20;;;;;;5044870;28;19924;-62
2023/08/31 12:56:52;;;;;;;;;;;20.90;58.00;;;;;;5047837;28;19979;-64
2023/08/31 12:59:21;;;;;;;;;;;20.90;58.20;;;;;;5049924;28;19924;-64
2023/08/31 13:01:48;;;;;;;;;;;20.90;58.00;;;;;;5046238;28;19974;-61
2023/08/31 13:04:15;;;;;;;;;;;20.90;58.00;;;;;;5046307;28;19929;-63
2023/08/31 13:06:42;;;;;;;;;;;20.90;58.00;;;;;;5045535;28;19974;-64
2023/08/31 13:09:09;;;;;;;;;;;21.00;58.00;;;;;;5047673;28;20034;-64
2023/08/31 13:11:36;;;;;;;;;;;20.90;57.90;;;;;;5041874;28;20012;-62
2023/08/31 13:14:03;;;;;;;;;;;20.90;57.90;;;;;;5072783;28;19928;-62
2023/08/31 13:16:30;;;;;;;;;;;20.90;57.90;;;;;;5044012;28;19956;-63
2023/08/31 13:18:57;;;;;;;;;;;20.90;58.00;;;;;;5048020;28;20838;-62
2023/08/31 13:21:25;;;;;;;;;;;20.90;58.30;;;;;;5046354;28;19932;-63
2023/08/31 13:23:52;;;;;;;;;;;20.90;58.20;;;;;;5047229;28;19925;-63
2023/08/31 13:26:18;;;;;;;;;;;21.00;58.40;;;;;;5046696;28;19970;-64
2023/08/31 13:28:46;;;;;;;;;;;21.10;57.10;;;;;;5048908;28;19931;-63
2023/08/31 13:31:12;;;;;;;;;;;21.20;57.50;;;;;;5047730;28;19925;-62
2023/08/31 13:33:40;;;;;;;;;;;21.20;56.60;;;;;;5048192;28;19991;-63
2023/08/31 13:36:08;;;;;;;;;;;21.20;57.10;;;;;;5054143;28;20359;-62
2023/08/31 13:38:36;;;;;;;;;;;21.20;57.50;;;;;;5042821;28;19978;-62
2023/08/31 13:41:03;;;;;;;;;;;21.20;57.30;;;;;;5045299;28;19970;-61
2023/08/31 13:43:30;;;;;;;;;;;21.20;56.80;;;;;;5046605;28;19924;-63
2023/08/31 13:45:59;;;;;;;;;;;21.20;57.20;;;;;;5045705;28;20019;-62
2023/08/31 13:48:26;;;;;;;;;;;21.20;57.90;;;;;;5045497;28;20412;-63
2023/08/31 13:50:53;;;;;;;;;;;21.10;57.70;;;;;;5044117;28;20007;-63
2023/08/31 13:53:20;;;;;;;;;;;21.10;57.50;;;;;;5045636;28;19968;-62
2023/08/31 13:55:47;;;;;;;;;;;21.10;57.90;;;;;;5043691;28;20381;-62
2023/08/31 13:58:15;;;;;;;;;;;21.10;58.30;;;;;;5046980;28;19972;-61
2023/08/31 14:00:42;;;;;;;;;;;21.10;58.00;;;;;;5043574;28;20389;-61
2023/08/31 14:03:09;;;;;;;;;;;21.10;57.90;;;;;;5083766;28;19933;-62
2023/08/31 14:05:36;;;;;;;;;;;21.20;60.00;;;;;;5048138;28;19998;-60
2023/08/31 14:08:04;;;;;;;;;;;21.30;68.60;;;;;;5045836;28;20324;-60
2023/08/31 14:10:32;;;;;;;;;;;21.60;72.00;;;;;;5049275;28;19925;-59
2023/08/31 14:13:00;;;;;;;;;;;21.80;73.00;;;;;;5048156;28;19936;-60
2023/08/31 14:15:27;;;;;;;;;;;22.10;73.50;;;;;;5049789;28;19929;-60
2023/08/31 14:17:54;;;;;;;;;;;22.30;73.60;;;;;;5048046;28;20126;-60
2023/08/31 14:20:22;;;;;;;;;;;22.60;73.40;;;;;;5048681;28;19929;-60
2023/08/31 14:22:50;;;;;;;;;;;22.80;73.40;;;;;;5046222;28;19929;-61